createdAt,value
2023-05-11T00:00:27.029Z,100576.91
2023-05-11T00:07:15.352Z,100590.47
2023-05-11T00:09:42.852Z,100591.59
2023-05-11T00:12:09.572Z,100586.50
2023-05-11T00:14:40.156Z,100591.34
2023-05-11T00:17:07.705Z,100587.88
2023-05-11T00:19:34.400Z,100594.34
2023-05-11T00:22:02.985Z,100593.16
2023-05-11T00:24:31.301Z,100592.03
2023-05-11T00:26:57.995Z,100607.94
2023-05-11T00:34:17.197Z,100592.91
2023-05-11T00:37:04.809Z,100594.88
2023-05-11T00:39:52.183Z,100596.31
2023-05-11T00:42:42.521Z,100599.66
2023-05-11T00:45:16.000Z,100601.16
2023-05-11T00:47:46.214Z,100596.00
2023-05-11T00:50:19.333Z,100611.00
2023-05-11T00:52:47.615Z,100605.00
2023-05-11T00:55:16.371Z,100605.72
2023-05-11T00:57:44.665Z,100606.50
2023-05-11T01:00:13.103Z,100598.47
2023-05-11T01:11:08.946Z,100612.31
2023-05-11T01:13:43.011Z,100624.91
2023-05-11T01:16:25.817Z,100612.94
2023-05-11T01:19:00.845Z,100618.81
2023-05-11T01:21:42.785Z,100623.06
2023-05-11T01:24:39.933Z,100612.25
2023-05-11T01:27:31.942Z,100621.84
2023-05-11T01:29:58.588Z,100614.81
2023-05-11T01:32:46.276Z,100628.28
2023-05-11T01:35:20.865Z,100625.19
2023-05-11T01:37:57.486Z,100618.97
2023-05-11T01:40:27.783Z,100613.41
2023-05-11T01:43:21.715Z,100628.75
2023-05-11T01:46:11.797Z,100614.94
2023-05-11T01:48:44.328Z,100608.56
2023-05-11T01:51:13.023Z,100614.81
2023-05-11T01:53:42.492Z,100614.69
2023-05-11T01:56:39.335Z,100630.03
2023-05-11T01:59:20.823Z,100628.75
2023-05-11T02:06:41.212Z,100633.63
2023-05-11T02:09:30.714Z,100636.28
2023-05-11T02:12:21.381Z,100633.06
2023-05-11T02:14:51.713Z,100628.66
2023-05-11T02:17:23.308Z,100631.44
2023-05-11T02:19:51.469Z,100632.25
2023-05-11T02:22:22.004Z,100647.13
2023-05-11T02:24:55.809Z,100642.28
2023-05-11T02:27:22.710Z,100640.66
2023-05-11T02:29:50.262Z,100647.81
2023-05-11T02:32:20.805Z,100650.91
2023-05-11T02:35:36.892Z,100647.00
2023-05-11T02:42:25.505Z,100655.28
2023-05-11T02:45:02.956Z,100646.19
2023-05-11T02:47:34.236Z,100648.25
2023-05-11T02:50:04.705Z,100653.91
2023-05-11T02:52:33.332Z,100650.78
2023-05-11T02:55:17.061Z,100651.72
2023-05-11T02:57:46.300Z,100650.09
2023-05-11T03:00:13.691Z,100653.22
2023-05-11T03:02:40.915Z,100659.22
2023-05-11T03:09:31.581Z,100651.59
2023-05-11T03:12:19.747Z,100651.03
2023-05-11T03:14:53.349Z,100643.41
2023-05-11T03:17:24.296Z,100654.84
2023-05-11T03:20:12.131Z,100645.72
2023-05-11T03:23:00.757Z,100658.88
2023-05-11T03:25:29.914Z,100653.78
2023-05-11T03:27:59.773Z,100641.56
2023-05-11T03:30:28.112Z,100643.19
2023-05-11T03:32:55.444Z,100653.09
2023-05-11T03:35:27.882Z,100647.47
2023-05-11T03:47:10.974Z,100656.22
2023-05-11T03:49:59.121Z,100649.88
2023-05-11T03:52:40.735Z,100646.66
2023-05-11T03:55:10.918Z,100651.38
2023-05-11T03:57:38.995Z,100657.59
2023-05-11T04:00:08.581Z,100645.72
2023-05-11T04:02:38.495Z,100643.78
2023-05-11T04:10:07.050Z,100649.31
2023-05-11T04:12:55.149Z,100657.59
2023-05-11T04:15:22.886Z,100658.41
2023-05-11T04:17:49.933Z,100663.94
2023-05-11T04:20:17.402Z,100666.25
2023-05-11T04:22:46.703Z,100654.03
2023-05-11T04:25:15.522Z,100655.19
2023-05-11T04:28:04.403Z,100655.97
2023-05-11T04:30:33.914Z,100649.66
2023-05-11T04:33:03.400Z,100660.38
2023-05-11T04:35:30.151Z,100654.03
2023-05-11T04:37:57.640Z,100655.19
2023-05-11T04:40:28.044Z,100664.19
2023-05-11T04:42:58.175Z,100663.00
2023-05-11T04:45:25.616Z,100659.09
2023-05-11T04:47:52.514Z,100671.00
2023-05-11T04:50:20.829Z,100664.19
2023-05-11T04:53:25.519Z,100659.47
2023-05-11T04:59:53.415Z,100674.09
2023-05-11T05:02:41.495Z,100678.03
2023-05-11T05:05:44.995Z,100677.56
2023-05-11T05:08:12.293Z,100678.03
2023-05-11T05:10:39.864Z,100677.66
2023-05-11T05:13:10.392Z,100680.56
2023-05-11T05:15:37.141Z,100677.09
2023-05-11T05:18:43.118Z,100679.19
2023-05-11T05:26:00.766Z,100686.00
2023-05-11T05:29:00.868Z,100686.78
2023-05-11T05:31:40.049Z,100683.31
2023-05-11T05:34:39.815Z,100684.94
2023-05-11T05:37:41.679Z,100673.88
2023-05-11T05:40:18.900Z,100671.56
2023-05-11T05:42:54.162Z,100669.97
2023-05-11T05:46:07.917Z,100670.06
2023-05-11T05:48:36.712Z,100673.75
2023-05-11T05:51:25.859Z,100681.38
2023-05-11T05:54:36.436Z,100673.84
2023-05-11T05:57:12.261Z,100671.06
2023-05-11T05:59:40.561Z,100682.16
2023-05-11T06:02:57.182Z,100683.09
2023-05-11T06:09:20.911Z,100694.38
2023-05-11T06:11:56.323Z,100695.56
2023-05-11T06:14:27.339Z,100691.28
2023-05-11T06:24:34.763Z,100688.97
2023-05-11T06:31:16.613Z,100694.22
2023-05-11T06:33:59.259Z,100689.72
2023-05-11T06:40:16.820Z,100698.66
2023-05-11T06:46:39.297Z,100701.47
2023-05-11T06:49:05.940Z,100697.44
2023-05-11T06:51:45.374Z,100702.06
2023-05-11T06:54:12.794Z,100698.03
2023-05-11T06:56:40.098Z,100699.22
2023-05-11T06:59:29.604Z,100699.66
2023-05-11T07:02:46.663Z,100694.66
2023-05-11T07:09:18.245Z,100712.66
2023-05-11T07:11:45.003Z,100715.63
2023-05-11T07:17:56.013Z,100718.94
2023-05-11T07:21:18.059Z,100714.13
2023-05-11T07:23:45.517Z,100718.50
2023-05-11T07:26:12.763Z,100720.56
2023-05-11T07:28:43.999Z,100718.69
2023-05-11T07:31:11.892Z,100732.09
2023-05-11T07:33:39.666Z,100724.19
2023-05-11T07:36:07.368Z,100725.28
2023-05-11T07:38:34.064Z,100727.81
2023-05-11T07:41:00.823Z,100728.09
2023-05-11T07:43:27.988Z,100735.00
2023-05-11T07:53:57.191Z,100739.53
2023-05-11T08:00:46.522Z,100731.72
2023-05-11T08:03:34.248Z,100739.34
2023-05-11T08:06:21.574Z,100732.91
2023-05-11T08:09:10.749Z,100730.47
2023-05-11T08:12:00.023Z,100744.19
2023-05-11T08:22:51.293Z,100763.06
2023-05-11T08:25:20.357Z,100763.63
2023-05-11T08:27:48.509Z,100763.81
2023-05-11T08:30:18.631Z,100764.03
2023-05-11T08:32:57.674Z,100762.63
2023-05-11T08:36:17.338Z,100755.59
2023-05-11T08:39:47.598Z,100760.72
2023-05-11T08:42:19.080Z,100767.34
2023-05-11T08:44:48.127Z,100757.09
2023-05-11T08:52:37.867Z,100765.94
2023-05-11T08:55:07.752Z,100765.41
2023-05-11T08:57:34.604Z,100768.81
2023-05-11T09:00:03.152Z,100769.69
2023-05-11T09:02:31.079Z,100768.88
2023-05-11T09:04:59.478Z,100769.72
2023-05-11T09:07:28.516Z,100760.09
2023-05-11T09:09:55.159Z,100760.75
2023-05-11T09:12:26.324Z,100762.03
2023-05-11T09:15:01.892Z,100760.31
2023-05-11T09:17:28.851Z,100759.97
2023-05-11T09:20:06.524Z,100753.53
2023-05-11T09:22:36.229Z,100752.97
2023-05-11T09:25:04.086Z,100757.19
2023-05-11T09:27:31.307Z,100766.94
2023-05-11T09:30:12.170Z,100749.94
2023-05-11T09:33:01.348Z,100757.28
2023-05-11T09:35:35.246Z,100755.09
2023-05-11T09:38:12.941Z,100758.53
2023-05-11T09:40:44.527Z,100751.88
2023-05-11T09:43:24.515Z,100755.25
2023-05-11T09:45:57.572Z,100756.00
2023-05-11T09:48:32.840Z,100757.63
2023-05-11T09:51:05.317Z,100750.78
2023-05-11T09:53:36.545Z,100754.66
2023-05-11T09:56:04.339Z,100754.31
2023-05-11T09:58:56.032Z,100756.25
2023-05-11T10:01:31.197Z,100745.69
2023-05-11T10:04:13.338Z,100757.38
2023-05-11T10:06:58.492Z,100761.75
2023-05-11T10:09:33.023Z,100750.78
2023-05-11T10:12:01.796Z,100759.97
2023-05-11T10:14:30.445Z,100757.72
2023-05-11T10:16:58.468Z,100759.69
2023-05-11T10:19:25.495Z,100757.63
2023-05-11T10:21:53.523Z,100754.84
2023-05-11T10:24:23.229Z,100765.13
2023-05-11T10:26:50.824Z,100759.22
2023-05-11T10:29:19.472Z,100750.91
2023-05-11T10:31:48.603Z,100757.19
2023-05-11T10:34:16.585Z,100759.03
2023-05-11T10:36:46.295Z,100746.72
2023-05-11T10:39:12.892Z,100753.94
2023-05-11T10:41:57.373Z,100751.19
2023-05-11T10:45:05.884Z,100751.09
2023-05-11T10:47:44.556Z,100752.06
2023-05-11T10:50:55.081Z,100753.38
2023-05-11T10:54:03.505Z,100755.09
2023-05-11T10:56:57.268Z,100754.06
2023-05-11T10:59:43.938Z,100753.59
2023-05-11T11:02:11.092Z,100759.41
2023-05-11T11:04:46.646Z,100748.94
2023-05-11T11:07:19.348Z,100752.25
2023-05-11T11:09:54.458Z,100730.31
2023-05-11T11:12:22.476Z,100754.69
2023-05-11T11:14:56.032Z,100754.13
2023-05-11T11:17:29.045Z,100758.97
2023-05-11T11:19:55.828Z,100767.94
2023-05-11T11:22:38.739Z,100773.88
2023-05-11T11:25:08.147Z,100772.66
2023-05-11T11:27:40.575Z,100776.03
2023-05-11T11:30:28.925Z,100777.94
2023-05-11T11:33:08.012Z,100768.22
2023-05-11T11:35:44.856Z,100766.56
2023-05-11T11:38:20.624Z,100770.75
2023-05-11T11:48:35.897Z,100783.13
2023-05-11T11:51:06.696Z,100777.97
2023-05-11T11:53:36.504Z,100779.31
2023-05-11T11:56:29.224Z,100775.13
2023-05-11T11:59:16.459Z,100784.72
2023-05-11T12:02:05.647Z,100782.16
2023-05-11T12:04:58.135Z,100782.94
2023-05-11T12:07:53.121Z,100787.84
2023-05-11T12:10:22.141Z,100792.00
2023-05-11T12:12:51.013Z,100787.97
2023-05-11T12:15:32.321Z,100789.56
2023-05-11T12:18:00.219Z,100794.78
2023-05-11T12:20:26.876Z,100799.97
2023-05-11T12:22:53.689Z,100794.97
2023-05-11T12:25:21.914Z,100801.78
2023-05-11T12:28:02.168Z,100797.75
2023-05-11T12:30:31.755Z,100815.94
2023-05-11T12:33:01.151Z,100808.03
2023-05-11T12:35:30.101Z,100818.34
2023-05-11T12:37:59.594Z,100819.13
2023-05-11T12:40:27.115Z,100820.59
2023-05-11T12:42:59.710Z,100820.16
2023-05-11T12:45:29.441Z,100821.31
2023-05-11T12:47:58.373Z,100827.50
2023-05-11T12:50:25.062Z,100826.09
2023-05-11T12:52:52.747Z,100815.19
2023-05-11T12:55:29.502Z,100823.97
2023-05-11T12:58:09.261Z,100814.53
2023-05-11T13:00:57.899Z,100816.81
2023-05-11T13:03:47.506Z,100824.97
2023-05-11T13:06:18.886Z,100823.81
2023-05-11T13:12:54.455Z,100825.22
2023-05-11T13:15:51.914Z,100843.25
2023-05-11T13:18:19.728Z,100836.56
2023-05-11T13:20:46.606Z,100842.97
2023-05-11T13:23:15.289Z,100829.41
2023-05-11T13:25:51.501Z,100839.34
2023-05-11T13:28:24.491Z,100842.56
2023-05-11T13:31:00.335Z,100848.94
2023-05-11T13:33:27.365Z,100849.84
2023-05-11T13:41:17.906Z,100836.44
2023-05-11T13:44:05.077Z,100840.09
2023-05-11T13:46:31.690Z,100843.06
2023-05-11T13:49:00.391Z,100835.22
2023-05-11T13:51:27.705Z,100838.94
2023-05-11T13:53:54.612Z,100850.22
2023-05-11T13:56:22.150Z,100856.00
2023-05-11T13:58:48.888Z,100850.31
2023-05-11T14:01:18.569Z,100856.63
2023-05-11T14:03:45.254Z,100863.81
2023-05-11T14:06:12.022Z,100866.44
2023-05-11T14:08:38.627Z,100867.13
2023-05-11T14:11:08.366Z,100873.03
2023-05-11T14:13:34.971Z,100874.72
2023-05-11T14:16:01.646Z,100870.75
2023-05-11T14:18:31.339Z,100874.84
2023-05-11T14:20:58.069Z,100867.75
2023-05-11T14:23:24.700Z,100877.16
2023-05-11T14:25:51.292Z,100875.63
2023-05-11T14:28:18.029Z,100880.53
2023-05-11T14:30:44.723Z,100875.94
2023-05-11T14:33:11.363Z,100881.00
2023-05-11T14:35:39.730Z,100891.13
2023-05-11T14:38:37.136Z,100895.53
2023-05-11T14:41:05.949Z,100895.56
2023-05-11T14:43:32.596Z,100894.81
2023-05-11T14:45:59.415Z,100896.63
2023-05-11T14:48:26.090Z,100899.94
2023-05-11T14:50:52.773Z,100900.84
2023-05-11T14:53:19.767Z,100901.88
2023-05-11T14:56:07.300Z,100904.44
2023-05-11T14:58:33.984Z,100903.03
2023-05-11T15:01:00.900Z,100900.81
2023-05-11T15:03:28.962Z,100914.22
2023-05-11T15:05:55.576Z,100917.38
2023-05-11T15:08:29.762Z,100913.34
2023-05-11T15:10:57.862Z,100914.75
2023-05-11T15:13:25.626Z,100923.88
2023-05-11T15:15:52.422Z,100926.38
2023-05-11T15:18:19.241Z,100925.75
2023-05-11T15:20:46.719Z,100941.22
2023-05-11T15:23:16.943Z,100934.56
2023-05-11T15:25:44.967Z,100935.72
2023-05-11T15:28:11.947Z,100943.31
2023-05-11T15:30:38.762Z,100936.34
2023-05-11T15:33:05.635Z,100943.22
2023-05-11T15:35:34.792Z,100937.44
2023-05-11T15:38:01.782Z,100947.97
2023-05-11T15:40:31.541Z,100948.53
2023-05-11T15:42:58.822Z,100963.78
2023-05-11T15:45:26.281Z,100957.56
2023-05-11T15:47:56.222Z,100957.81
2023-05-11T15:50:23.000Z,100958.22
2023-05-11T15:53:09.965Z,100958.38
2023-05-11T15:55:57.059Z,100961.19
2023-05-11T15:58:43.996Z,100963.69
2023-05-11T16:01:10.737Z,100966.19
2023-05-11T16:03:37.855Z,100969.91
2023-05-11T16:06:05.005Z,100978.41
2023-05-11T16:16:35.830Z,100999.88
2023-05-11T16:19:22.800Z,101004.94
2023-05-11T16:36:09.621Z,101037.09
2023-05-11T16:50:25.173Z,101072.84
2023-05-11T16:53:15.419Z,101068.16
2023-05-11T16:55:42.077Z,101077.44
2023-05-11T16:58:09.871Z,101087.50
2023-05-11T17:00:36.637Z,101099.22
2023-05-11T17:03:03.576Z,101096.47
2023-05-11T17:05:30.424Z,101099.56
2023-05-11T17:07:57.028Z,101102.75
2023-05-11T17:15:13.280Z,101119.94
2023-05-11T17:18:00.243Z,101111.97
2023-05-11T17:20:26.926Z,101115.53
2023-05-11T17:22:53.528Z,101130.50
2023-05-11T17:25:22.639Z,101124.06
2023-05-11T17:27:51.825Z,101142.50
2023-05-11T17:30:18.772Z,101143.97
2023-05-11T17:32:48.742Z,101151.00
2023-05-11T17:35:15.604Z,101156.78
2023-05-11T17:37:42.305Z,101161.66
2023-05-11T17:43:52.100Z,101163.59
2023-05-11T17:46:19.083Z,101169.25
2023-05-11T17:48:45.792Z,101170.81
2023-05-11T17:51:13.470Z,101178.66
2023-05-11T17:53:42.869Z,101174.53
2023-05-11T17:56:11.827Z,101188.06
2023-05-11T17:58:43.186Z,101188.53
2023-05-11T18:01:13.907Z,101203.63
2023-05-11T18:03:41.240Z,101205.13
2023-05-11T18:06:08.583Z,101203.91
2023-05-11T18:08:36.747Z,101210.66
2023-05-11T18:11:07.750Z,101218.16
2023-05-11T18:13:35.696Z,101210.50
2023-05-11T18:16:02.456Z,101222.84
2023-05-11T18:18:29.153Z,101223.53
2023-05-11T18:21:34.039Z,101229.69
2023-05-11T18:36:04.690Z,101265.28
2023-05-11T18:38:51.683Z,101267.44
2023-05-11T18:41:38.603Z,101270.94
2023-05-11T18:44:05.432Z,101272.00
2023-05-11T18:50:23.425Z,101287.94
2023-05-11T18:52:50.073Z,101293.22
2023-05-11T18:55:19.497Z,101297.91
2023-05-11T18:57:46.128Z,101296.16
2023-05-11T19:05:00.798Z,101317.44
2023-05-11T19:07:28.139Z,101331.03
2023-05-11T19:13:35.730Z,101338.44
2023-05-11T19:16:04.476Z,101347.59
2023-05-11T19:18:32.370Z,101348.31
2023-05-11T19:20:59.077Z,101348.56
2023-05-11T19:23:25.848Z,101363.19
2023-05-11T19:25:52.488Z,101373.59
2023-05-11T19:28:21.726Z,101370.81
2023-05-11T19:30:48.358Z,101371.19
2023-05-11T19:33:15.215Z,101371.53
2023-05-11T19:35:41.911Z,101371.78
2023-05-11T19:38:28.940Z,101383.59
2023-05-11T19:41:17.447Z,101384.53
2023-05-11T19:44:04.503Z,101394.66
2023-05-11T19:46:51.526Z,101394.06
2023-05-11T19:53:25.061Z,101408.69
2023-05-11T19:55:51.675Z,101408.69
2023-05-11T19:58:18.657Z,101411.94
2023-05-11T20:00:45.890Z,101414.38
2023-05-11T20:03:12.668Z,101419.81
2023-05-11T20:05:39.631Z,101416.59
2023-05-11T20:08:06.317Z,101423.53
2023-05-11T20:14:40.850Z,101432.66
2023-05-11T20:22:05.352Z,101447.84
2023-05-11T20:24:52.257Z,101449.72
2023-05-11T20:27:39.235Z,101444.81
2023-05-11T20:30:26.205Z,101456.41
2023-05-11T20:36:03.408Z,101450.78
2023-05-11T20:38:53.215Z,101460.97
2023-05-11T20:41:40.163Z,101474.63
2023-05-11T20:44:27.165Z,101473.34
2023-05-11T20:47:14.068Z,101467.66
2023-05-11T20:50:01.187Z,101472.75
2023-05-11T20:52:27.957Z,101477.81
2023-05-11T20:54:54.685Z,101486.03
2023-05-11T20:57:22.102Z,101473.63
2023-05-11T21:02:18.588Z,101487.84
2023-05-11T21:04:46.666Z,101486.09
2023-05-11T21:07:15.691Z,101485.63
2023-05-11T21:09:44.475Z,101489.91
2023-05-11T21:12:11.186Z,101506.59
2023-05-11T21:18:51.907Z,101509.78
2023-05-11T21:21:18.916Z,101505.38
2023-05-11T21:23:45.572Z,101502.94
2023-05-11T21:26:12.168Z,101506.03
2023-05-11T21:32:31.224Z,101523.94
2023-05-11T21:34:57.849Z,101523.44
2023-05-11T21:37:28.220Z,101528.50
2023-05-11T21:39:54.811Z,101533.44
2023-05-11T21:42:21.873Z,101534.47
2023-05-11T21:44:48.581Z,101541.50
2023-05-11T21:47:15.494Z,101551.78
2023-05-11T21:49:42.130Z,101555.75
2023-05-11T21:52:09.131Z,101557.34
2023-05-11T21:54:35.826Z,101554.25
2023-05-11T21:57:03.734Z,101568.44
2023-05-11T21:59:30.452Z,101570.75
2023-05-11T22:01:57.256Z,101575.84
2023-05-11T22:04:24.141Z,101582.38
2023-05-11T22:06:50.821Z,101576.34
2023-05-11T22:17:19.261Z,101595.22
2023-05-11T22:24:27.378Z,101598.03
2023-05-11T22:27:18.058Z,101609.78
2023-05-11T22:30:06.080Z,101609.63
2023-05-11T22:32:53.253Z,101618.94
2023-05-11T22:35:40.378Z,101614.88
2023-05-11T22:38:27.437Z,101623.81
2023-05-11T22:41:14.510Z,101628.06
2023-05-11T22:44:01.510Z,101627.25
2023-05-11T22:46:52.142Z,101633.16
2023-05-11T22:49:39.040Z,101632.66
2023-05-11T22:56:38.229Z,101645.56
2023-05-11T22:59:08.844Z,101646.03
2023-05-11T23:01:35.624Z,101654.53
2023-05-11T23:04:02.806Z,101649.63
2023-05-11T23:06:29.420Z,101651.94
2023-05-11T23:08:56.035Z,101650.97
2023-05-11T23:11:25.742Z,101645.25
2023-05-11T23:13:52.359Z,101650.16
2023-05-11T23:16:19.636Z,101659.47
2023-05-11T23:18:46.466Z,101659.78
2023-05-11T23:21:13.195Z,101666.78
2023-05-11T23:23:42.952Z,101658.34
2023-05-11T23:26:10.309Z,101663.38
2023-05-11T23:28:38.100Z,101656.22
2023-05-11T23:31:05.161Z,101666.50
2023-05-11T23:33:32.787Z,101671.84
2023-05-11T23:40:49.597Z,101675.63
2023-05-11T23:43:24.936Z,101692.72
2023-05-11T23:45:57.559Z,101688.66
2023-05-11T23:48:24.423Z,101692.59
2023-05-11T23:54:40.715Z,101697.78
2023-05-11T23:57:11.861Z,101706.09
